Time,TemperatureF,DewpointF,PressureIn,WindDirection,WindDirectionDegrees,WindSpeedMPH,WindSpeedGustMPH,Humidity,HourlyPrecipIn,Conditions,Clouds,dailyrainin,SolarRadiationWatts/m^2,SoftwareType,DateUTC
2013-05-05 00:01:00,36.3,35.8,29.60,North,0,1.1,0.0,98,0.00,OVC,,0.00,0.0,WeatherDisplay:10.37,2013-05-05 05:01:00,
2013-05-05 00:06:00,36.1,35.4,29.60,North,0,1.1,0.0,97,0.00,OVC,,0.00,0.0,WeatherDisplay:10.37,2013-05-05 05:06:00,
2013-05-05 00:11:00,36.1,35.6,29.60,ENE,68,1.1,0.0,98,0.00,OVC,,0.00,0.0,WeatherDisplay:10.37,2013-05-05 05:11:00,
2013-05-05 00:16:00,36.1,35.6,29.60,NE,45,0.0,0.0,98,0.00,OVC,,0.00,0.0,WeatherDisplay:10.37,2013-05-05 05:16:00,
2013-05-05 00:21:00,36.1,35.6,29.60,North,0,2.3,2.3,98,0.00,OVC,,0.00,0.0,WeatherDisplay:10.37,2013-05-05 05:21:00,
2013-05-05 00:26:00,36.5,36.2,29.60,NNW,338,2.3,2.3,99,0.00,OVC,,0.00,0.0,WeatherDisplay:10.37,2013-05-05 05:26:00,
2013-05-05 00:31:00,36.3,36.1,29.60,NW,315,0.0,0.0,99,0.00,,OVC,0.00,0.0,WeatherDisplay:10.37,2013-05-05 05:31:00,
2013-05-05 00:36:00,36.3,36.1,29.60,NW,315,0.0,0.0,99,0.00,,OVC,0.00,0.0,WeatherDisplay:10.37,2013-05-05 05:36:00,
2013-05-05 00:41:00,36.3,36.1,29.60,NNW,338,0.0,0.0,99,0.00,,OVC,0.00,0.0,WeatherDisplay:10.37,2013-05-05 05:41:00,
2013-05-05 00:46:00,36.1,35.9,29.60,NNW,338,1.1,0.0,99,0.00,,OVC,0.00,0.0,WeatherDisplay:10.37,2013-05-05 05:46:00,
2013-05-05 00:51:00,36.3,36.3,29.60,NNW,338,0.0,0.0,100,0.00,,OVC,0.00,0.0,WeatherDisplay:10.37,2013-05-05 05:51:00,
2013-05-05 00:56:00,36.5,36.5,29.60,WNW,292,2.3,2.3,100,0.00,,OVC,0.00,0.0,WeatherDisplay:10.37,2013-05-05 05:56:00,
2013-05-05 01:01:00,36.3,36.3,29.60,WNW,292,0.0,0.0,100,0.00,,OVC,0.00,0.0,WeatherDisplay:10.37,2013-05-05 06:01:00,
2013-05-05 01:06:00,36.3,36.3,29.60,WNW,292,0.0,0.0,100,0.00,,OVC,0.00,0.0,WeatherDisplay:10.37,2013-05-05 06:06:00,
2013-05-05 01:11:00,36.5,36.5,29.60,WNW,292,2.3,2.3,100,0.00,,OVC,0.00,0.0,WeatherDisplay:10.37,2013-05-05 06:11:00,
2013-05-05 01:16:00,36.5,36.5,29.60,WNW,292,2.3,2.3,100,0.00,,OVC,0.00,0.0,WeatherDisplay:10.37,2013-05-05 06:16:00,
2013-05-05 01:21:00,36.7,36.7,29.60,WNW,292,2.4,2.6,100,0.00,,OVC,0.00,0.0,WeatherDisplay:10.37,2013-05-05 06:21:00,
2013-05-05 01:26:00,36.5,36.5,29.60,WNW,292,2.4,2.4,100,0.00,,OVC,0.00,0.0,WeatherDisplay:10.37,2013-05-05 06:26:00,
2013-05-05 01:31:00,36.1,36.1,29.60,WNW,292,3.5,3.5,100,0.00,,OVC,0.00,0.0,WeatherDisplay:10.37,2013-05-05 06:31:00,
2013-05-05 01:36:00,36.0,36.0,29.60,WNW,292,3.5,3.5,100,0.00,,OVC,0.00,0.0,WeatherDisplay:10.37,2013-05-05 06:36:00,
2013-05-05 01:41:00,35.8,35.8,29.60,WNW,292,2.3,2.3,100,0.00,,OVC,0.00,0.0,WeatherDisplay:10.37,2013-05-05 06:41:00,
2013-05-05 01:46:00,36.1,36.1,29.60,WNW,292,2.3,2.4,100,0.00,,OVC,0.00,0.0,WeatherDisplay:10.37,2013-05-05 06:46:00,
2013-05-05 01:51:00,35.6,35.6,29.60,WNW,292,2.3,0.0,100,0.00,,OVC,0.00,0.0,WeatherDisplay:10.37,2013-05-05 06:51:00,
2013-05-05 01:56:00,35.2,35.2,29.60,WNW,292,0.0,0.0,100,0.00,,OVC,0.00,0.0,WeatherDisplay:10.37,2013-05-05 06:56:00,
2013-05-05 02:01:00,34.9,34.9,29.60,WNW,292,0.0,0.0,100,0.00,,OVC,0.00,0.0,WeatherDisplay:10.37,2013-05-05 07:01:00,
2013-05-05 02:06:00,34.9,34.9,29.60,WNW,292,0.0,0.0,100,0.00,,OVC,0.00,0.0,WeatherDisplay:10.37,2013-05-05 07:06:00,
2013-05-05 02:11:00,34.9,34.9,29.60,WNW,292,2.3,2.3,100,0.00,,OVC,0.00,0.0,WeatherDisplay:10.37,2013-05-05 07:11:00,
2013-05-05 02:16:00,35.1,35.1,29.60,WNW,292,2.3,2.3,100,0.00,,OVC,0.00,0.0,WeatherDisplay:10.37,2013-05-05 07:16:00,
2013-05-05 02:21:00,35.1,35.1,29.60,WNW,292,2.3,2.3,100,0.00,,OVC,0.00,0.0,WeatherDisplay:10.37,2013-05-05 07:21:00,
2013-05-05 02:26:00,34.9,34.9,29.60,WNW,292,1.4,1.4,100,0.00,,OVC,0.00,0.0,WeatherDisplay:10.37,2013-05-05 07:26:00,
2013-05-05 02:31:00,34.9,34.9,29.60,WNW,292,2.3,2.3,100,0.00,,OVC,0.00,0.0,WeatherDisplay:10.37,2013-05-05 07:31:00,
2013-05-05 02:36:00,34.7,34.7,29.60,WNW,292,2.3,2.3,100,0.00,,OVC,0.00,0.0,WeatherDisplay:10.37,2013-05-05 07:36:00,
2013-05-05 02:42:00,34.2,34.2,29.60,WNW,292,2.6,2.6,100,0.00,,OVC,0.00,0.0,WeatherDisplay:10.37,2013-05-05 07:42:00,
2013-05-05 02:47:00,34.5,34.5,29.60,WNW,292,2.6,2.6,100,0.00,,OVC,0.00,0.0,WeatherDisplay:10.37,2013-05-05 07:47:00,
2013-05-05 02:52:00,34.3,34.3,29.60,WNW,292,2.3,2.3,100,0.00,,OVC,0.00,0.0,WeatherDisplay:10.37,2013-05-05 07:52:00,
2013-05-05 02:57:00,34.3,34.3,29.60,WNW,292,1.1,0.0,100,0.00,,OVC,0.00,0.0,WeatherDisplay:10.37,2013-05-05 07:57:00,
2013-05-05 03:02:00,34.0,34.0,29.60,WNW,292,0.0,0.0,100,0.00,,OVC,0.00,0.0,WeatherDisplay:10.37,2013-05-05 08:02:00,
2013-05-05 03:07:00,33.6,33.6,29.60,WNW,292,0.0,0.0,100,0.00,,OVC,0.00,0.0,WeatherDisplay:10.37,2013-05-05 08:07:00,
2013-05-05 03:12:00,33.1,33.1,29.60,WNW,292,0.0,0.0,100,0.00,,OVC,0.00,0.0,WeatherDisplay:10.37,2013-05-05 08:12:00,
2013-05-05 03:17:00,33.6,33.6,29.60,WNW,292,0.0,0.0,100,0.00,,OVC,0.00,0.0,WeatherDisplay:10.37,2013-05-05 08:17:00,
2013-05-05 03:22:00,33.6,33.6,29.60,WNW,292,1.1,1.1,100,0.00,,OVC,0.00,0.0,WeatherDisplay:10.37,2013-05-05 08:22:00,
2013-05-05 03:27:00,33.3,33.3,29.60,WNW,292,0.0,0.0,100,0.00,,OVC,0.00,0.0,WeatherDisplay:10.37,2013-05-05 08:27:00,
2013-05-05 03:32:00,33.6,33.6,29.60,WNW,292,0.0,0.0,100,0.00,,OVC,0.00,0.0,WeatherDisplay:10.37,2013-05-05 08:32:00,
2013-05-05 03:37:00,33.8,33.8,29.60,WNW,292,0.0,0.0,100,0.00,,OVC,0.00,0.0,WeatherDisplay:10.37,2013-05-05 08:37:00,
2013-05-05 03:42:00,33.8,33.8,29.60,WNW,292,0.0,0.0,100,0.00,,OVC,0.00,0.0,WeatherDisplay:10.37,2013-05-05 08:42:00,
2013-05-05 03:47:00,33.8,33.8,29.60,WNW,292,0.0,0.0,100,0.00,,OVC,0.00,0.0,WeatherDisplay:10.37,2013-05-05 08:47:00,
2013-05-05 03:52:00,33.3,33.3,29.60,WNW,292,0.0,0.0,100,0.00,,OVC,0.00,0.0,WeatherDisplay:10.37,2013-05-05 08:52:00,
2013-05-05 03:57:00,33.1,33.1,29.60,WNW,292,0.0,0.0,100,0.00,,OVC,0.00,0.0,WeatherDisplay:10.37,2013-05-05 08:57:00,
2013-05-05 04:02:00,33.1,33.1,29.60,WNW,292,0.0,0.0,100,0.00,,OVC,0.00,0.0,WeatherDisplay:10.37,2013-05-05 09:02:00,
2013-05-05 04:07:00,32.7,32.7,29.60,WNW,292,0.0,0.0,100,0.00,,OVC,0.00,0.0,WeatherDisplay:10.37,2013-05-05 09:07:00,
2013-05-05 04:12:00,32.7,32.7,29.63,WNW,292,0.0,0.0,100,0.00,,OVC,0.00,0.0,WeatherDisplay:10.37,2013-05-05 09:12:00,
2013-05-05 04:17:00,32.5,32.5,29.63,WNW,292,0.0,0.0,100,0.00,,OVC,0.00,0.0,WeatherDisplay:10.37,2013-05-05 09:17:00,
2013-05-05 04:22:00,32.5,32.5,29.63,WNW,292,0.0,0.0,100,0.00,,OVC,0.00,0.0,WeatherDisplay:10.37,2013-05-05 09:22:00,
2013-05-05 04:27:00,33.1,33.1,29.63,WNW,292,0.0,0.0,100,0.00,,OVC,0.00,0.0,WeatherDisplay:10.37,2013-05-05 09:27:00,
2013-05-05 04:32:00,33.1,33.1,29.63,WNW,292,0.0,0.0,100,0.00,,OVC,0.00,0.0,WeatherDisplay:10.37,2013-05-05 09:32:00,
2013-05-05 04:37:00,33.1,33.1,29.63,WNW,292,0.0,0.0,100,0.00,,OVC,0.00,0.0,WeatherDisplay:10.37,2013-05-05 09:37:00,
2013-05-05 04:42:00,32.9,32.9,29.63,WNW,292,0.0,0.0,100,0.00,,OVC,0.00,0.0,WeatherDisplay:10.37,2013-05-05 09:42:00,
2013-05-05 04:47:00,32.9,32.9,29.63,WNW,292,0.0,0.0,100,0.00,,OVC,0.00,0.0,WeatherDisplay:10.37,2013-05-05 09:47:00,
2013-05-05 04:52:00,32.9,32.9,29.63,WNW,292,0.0,0.0,100,0.00,,OVC,0.00,0.0,WeatherDisplay:10.37,2013-05-05 09:52:00,
2013-05-05 04:57:00,32.5,32.5,29.63,WNW,292,0.0,0.0,100,0.00,,OVC,0.00,0.0,WeatherDisplay:10.37,2013-05-05 09:57:00,
2013-05-05 05:02:00,32.9,32.9,29.63,WNW,292,2.3,2.3,100,0.00,,OVC,0.00,0.0,WeatherDisplay:10.37,2013-05-05 10:02:00,
2013-05-05 05:07:00,32.2,32.2,29.63,WNW,292,2.3,2.3,100,0.00,,OVC,0.00,0.0,WeatherDisplay:10.37,2013-05-05 10:07:00,
2013-05-05 05:12:00,32.0,32.0,29.63,WNW,292,1.1,1.1,100,0.00,,OVC,0.00,0.0,WeatherDisplay:10.37,2013-05-05 10:12:00,
2013-05-05 05:17:00,32.4,32.4,29.63,WNW,292,0.0,0.0,100,0.00,,OVC,0.00,0.0,WeatherDisplay:10.37,2013-05-05 10:17:00,
2013-05-05 05:22:00,32.5,32.5,29.63,WNW,292,1.1,0.0,100,0.00,,OVC,0.00,0.0,WeatherDisplay:10.37,2013-05-05 10:22:00,
2013-05-05 05:27:00,32.4,32.4,29.63,WNW,292,0.0,0.0,100,0.00,,OVC,0.00,0.0,WeatherDisplay:10.37,2013-05-05 10:27:00,
2013-05-05 05:32:00,32.2,32.2,29.63,WNW,292,0.0,0.0,100,0.00,,OVC,0.00,0.0,WeatherDisplay:10.37,2013-05-05 10:32:00,
2013-05-05 05:37:00,32.0,32.0,29.63,WNW,292,0.0,0.0,100,0.00,,OVC,0.00,0.0,WeatherDisplay:10.37,2013-05-05 10:37:00,
2013-05-05 05:42:00,31.8,31.8,29.63,WNW,292,0.0,0.0,100,0.00,,OVC,0.00,0.0,WeatherDisplay:10.37,2013-05-05 10:42:00,
2013-05-05 05:47:00,32.2,32.2,29.63,WNW,292,0.0,0.0,100,0.00,,OVC,0.00,0.0,WeatherDisplay:10.37,2013-05-05 10:47:00,
2013-05-05 05:52:00,32.5,32.5,29.63,WNW,292,0.0,0.0,100,0.00,,OVC,0.00,0.0,WeatherDisplay:10.37,2013-05-05 10:52:00,
2013-05-05 05:57:00,33.1,33.1,29.63,WNW,292,2.4,2.4,100,0.00,,OVC,0.00,0.0,WeatherDisplay:10.37,2013-05-05 10:57:00,
2013-05-05 06:02:00,32.9,32.9,29.63,WNW,292,2.3,2.3,100,0.00,,OVC,0.00,0.0,WeatherDisplay:10.37,2013-05-05 11:02:00,
2013-05-05 06:07:00,33.1,33.1,29.63,WNW,292,2.3,2.3,100,0.00,,OVC,0.00,0.0,WeatherDisplay:10.37,2013-05-05 11:07:00,
2013-05-05 06:12:00,33.3,33.3,29.63,WNW,292,2.3,2.3,100,0.00,,OVC,0.00,0.0,WeatherDisplay:10.37,2013-05-05 11:12:00,
2013-05-05 06:17:00,33.6,33.6,29.63,WNW,292,2.3,2.3,100,0.00,,OVC,0.00,0.0,WeatherDisplay:10.37,2013-05-05 11:17:00,
2013-05-05 06:22:00,33.8,33.8,29.63,WNW,292,0.0,0.0,100,0.00,,OVC,0.00,0.0,WeatherDisplay:10.37,2013-05-05 11:22:00,
2013-05-05 06:27:00,34.0,34.0,29.60,WNW,292,0.0,0.0,100,0.00,,OVC,0.00,0.0,WeatherDisplay:10.37,2013-05-05 11:27:00,
2013-05-05 06:32:00,34.2,34.2,29.60,WNW,292,0.0,0.0,100,0.00,,OVC,0.00,0.0,WeatherDisplay:10.37,2013-05-05 11:32:00,
2013-05-05 06:37:00,34.5,34.5,29.60,WNW,292,0.0,0.0,100,0.00,,OVC,0.00,0.0,WeatherDisplay:10.37,2013-05-05 11:37:00,
2013-05-05 06:42:00,34.9,34.9,29.60,WNW,292,0.0,0.0,100,0.00,,OVC,0.00,0.0,WeatherDisplay:10.37,2013-05-05 11:42:00,
2013-05-05 06:47:00,35.4,35.4,29.60,WNW,292,0.0,0.0,100,0.00,,OVC,0.00,0.0,WeatherDisplay:10.37,2013-05-05 11:47:00,
2013-05-05 06:52:00,36.1,36.1,29.60,WNW,292,0.0,0.0,100,0.00,,OVC,0.00,0.0,WeatherDisplay:10.37,2013-05-05 11:52:00,
2013-05-05 06:57:00,36.7,36.7,29.63,WNW,292,0.0,0.0,100,0.00,,OVC,0.00,0.0,WeatherDisplay:10.37,2013-05-05 11:57:00,
2013-05-05 07:02:00,37.2,37.2,29.63,WNW,292,0.0,0.0,100,0.00,,OVC,0.00,0.0,WeatherDisplay:10.37,2013-05-05 12:02:00,
2013-05-05 07:07:00,37.8,37.8,29.63,WNW,292,2.6,0.0,100,0.00,,OVC,0.00,0.0,WeatherDisplay:10.37,2013-05-05 12:07:00,
2013-05-05 07:12:00,38.1,38.1,29.63,West,270,3.5,3.5,100,0.00,,OVC,0.00,0.0,WeatherDisplay:10.37,2013-05-05 12:12:00,
2013-05-05 07:17:00,38.1,38.1,29.63,WNW,292,2.4,2.6,100,0.00,,OVC,0.00,0.0,WeatherDisplay:10.37,2013-05-05 12:17:00,
2013-05-05 07:22:00,38.5,38.5,29.63,WNW,292,2.3,0.0,100,0.00,,OVC,0.00,0.0,WeatherDisplay:10.37,2013-05-05 12:22:00,
2013-05-05 07:27:00,39.0,39.0,29.63,WNW,292,0.0,0.0,100,0.00,,OVC,0.00,0.0,WeatherDisplay:10.37,2013-05-05 12:27:00,
2013-05-05 07:32:00,39.4,39.4,29.63,NNW,338,0.0,0.0,100,0.00,,OVC,0.00,0.0,WeatherDisplay:10.37,2013-05-05 12:32:00,
2013-05-05 07:37:00,39.6,39.6,29.63,WNW,292,4.6,4.6,100,0.00,,OVC,0.00,0.0,WeatherDisplay:10.37,2013-05-05 12:37:00,
2013-05-05 07:42:00,39.9,39.9,29.63,NNW,338,2.4,2.4,100,0.00,,OVC,0.00,0.0,WeatherDisplay:10.37,2013-05-05 12:42:00,
2013-05-05 07:47:00,40.3,40.3,29.63,WNW,292,3.5,3.5,100,0.00,,OVC,0.00,0.0,WeatherDisplay:10.37,2013-05-05 12:47:00,
2013-05-05 07:52:00,40.6,40.6,29.63,NNW,338,3.5,3.5,100,0.00,,OVC,0.00,0.0,WeatherDisplay:10.37,2013-05-05 12:52:00,
2013-05-05 07:57:00,41.0,41.0,29.66,WNW,292,4.6,4.6,100,0.00,,OVC,0.00,0.0,WeatherDisplay:10.37,2013-05-05 12:57:00,
2013-05-05 08:02:00,42.1,42.1,29.66,NNW,338,1.1,0.0,100,0.00,,OVC,0.00,0.0,WeatherDisplay:10.37,2013-05-05 13:02:00,
2013-05-05 08:07:00,43.5,43.5,29.66,NNW,338,3.1,3.1,100,0.00,,OVC,0.00,0.0,WeatherDisplay:10.37,2013-05-05 13:07:00,
2013-05-05 08:13:00,44.1,44.1,29.66,NNW,338,3.5,3.5,100,0.00,,OVC,0.00,0.0,WeatherDisplay:10.37,2013-05-05 13:13:00,
2013-05-05 08:18:00,44.4,44.4,29.66,NNW,338,3.5,3.5,100,0.00,,OVC,0.00,0.0,WeatherDisplay:10.37,2013-05-05 13:18:00,
2013-05-05 08:23:00,44.2,44.2,29.66,NNW,338,3.5,3.5,100,0.00,,OVC,0.00,0.0,WeatherDisplay:10.37,2013-05-05 13:23:00,
2013-05-05 08:28:00,43.5,43.5,29.66,WNW,292,4.9,4.9,100,0.00,,OVC,0.00,0.0,WeatherDisplay:10.37,2013-05-05 13:28:00,
2013-05-05 08:33:00,43.7,43.7,29.66,WNW,292,4.6,4.6,100,0.00,,OVC,0.00,0.0,WeatherDisplay:10.37,2013-05-05 13:33:00,
2013-05-05 08:38:00,44.4,44.4,29.66,NW,315,5.8,5.8,100,0.00,,OVC,0.00,0.0,WeatherDisplay:10.37,2013-05-05 13:38:00,
2013-05-05 08:43:00,44.4,43.9,29.66,WNW,292,6.0,6.0,98,0.00,OVC,,0.00,0.0,WeatherDisplay:10.37,2013-05-05 13:43:00,
2013-05-05 08:48:00,44.6,43.3,29.66,WNW,292,5.8,5.8,95,0.00,OVC,,0.00,0.0,WeatherDisplay:10.37,2013-05-05 13:48:00,
2013-05-05 08:53:00,44.6,43.0,29.66,WNW,292,6.9,6.9,94,0.00,OVC,,0.00,0.0,WeatherDisplay:10.37,2013-05-05 13:53:00,
2013-05-05 08:58:00,45.0,43.3,29.69,NW,315,5.8,5.8,94,0.00,OVC,,0.00,0.0,WeatherDisplay:10.37,2013-05-05 13:58:00,
2013-05-05 09:03:00,45.3,43.4,29.69,WNW,292,5.8,5.8,93,0.00,OVC,,0.00,0.0,WeatherDisplay:10.37,2013-05-05 14:03:00,
2013-05-05 09:08:00,45.1,42.4,29.69,WNW,292,6.9,6.9,90,0.00,OVC,,0.00,0.0,WeatherDisplay:10.37,2013-05-05 14:08:00,
2013-05-05 09:13:00,45.1,42.1,29.69,WNW,292,6.9,6.9,89,0.00,OVC,,0.00,0.0,WeatherDisplay:10.37,2013-05-05 14:13:00,
2013-05-05 09:18:00,45.5,42.2,29.69,WNW,292,4.6,4.6,88,0.00,OVC,,0.00,100.0,WeatherDisplay:10.37,2013-05-05 14:18:00,
2013-05-05 09:23:00,46.4,42.4,29.69,NNW,338,6.9,6.9,86,0.00,OVC,,0.00,100.0,WeatherDisplay:10.37,2013-05-05 14:23:00,
2013-05-05 09:28:00,46.6,41.7,29.69,NNW,338,6.9,6.9,83,0.00,OVC,,0.00,100.0,WeatherDisplay:10.37,2013-05-05 14:28:00,
2013-05-05 09:33:00,47.1,42.2,29.69,WNW,292,5.8,5.8,83,0.00,OVC,,0.00,100.0,WeatherDisplay:10.37,2013-05-05 14:33:00,
2013-05-05 09:38:00,47.7,41.1,29.69,WNW,292,6.9,6.9,78,0.00,OVC,,0.00,100.0,WeatherDisplay:10.37,2013-05-05 14:38:00,
2013-05-05 09:43:00,47.7,40.8,29.69,NW,315,6.9,6.9,77,0.00,OVC,,0.00,100.0,WeatherDisplay:10.37,2013-05-05 14:43:00,
2013-05-05 09:48:00,47.7,40.5,29.69,NNW,338,4.6,4.6,76,0.00,OVC,,0.00,100.0,WeatherDisplay:10.37,2013-05-05 14:48:00,
2013-05-05 09:53:00,47.8,41.0,29.69,NW,315,6.2,6.2,77,0.00,OVC,,0.00,100.0,WeatherDisplay:10.37,2013-05-05 14:53:00,
2013-05-05 09:58:00,47.8,41.0,29.69,NW,315,6.2,6.2,77,0.00,OVC,,0.00,100.0,WeatherDisplay:10.37,2013-05-05 14:58:00,
2013-05-05 10:03:00,48.9,40.6,29.69,WNW,292,4.6,4.6,73,0.00,OVC,,0.00,200.0,WeatherDisplay:10.37,2013-05-05 15:03:00,
2013-05-05 10:08:00,49.8,41.5,29.69,WNW,292,5.8,5.8,73,0.00,OVC,,0.00,100.0,WeatherDisplay:10.37,2013-05-05 15:08:00,
2013-05-05 10:13:00,49.5,40.8,29.69,WNW,292,8.1,8.1,72,0.00,OVC,,0.00,100.0,WeatherDisplay:10.37,2013-05-05 15:13:00,
2013-05-05 10:18:00,49.5,40.4,29.69,WNW,292,5.9,5.9,71,0.00,OVC,,0.00,100.0,WeatherDisplay:10.37,2013-05-05 15:18:00,
2013-05-05 10:23:00,49.1,39.7,29.69,WNW,292,4.6,5.9,70,0.00,OVC,,0.00,100.0,WeatherDisplay:10.37,2013-05-05 15:23:00,
2013-05-05 10:28:00,49.1,39.7,29.69,WNW,292,4.6,5.9,70,0.00,OVC,,0.00,100.0,WeatherDisplay:10.37,2013-05-05 15:28:00,
2013-05-05 10:33:00,49.1,39.7,29.69,WNW,292,4.6,5.9,70,0.00,OVC,,0.00,100.0,WeatherDisplay:10.37,2013-05-05 15:33:00,
2013-05-05 10:38:00,50.0,41.0,29.69,WNW,292,5.8,5.8,71,0.00,OVC,,0.00,200.0,WeatherDisplay:10.37,2013-05-05 15:38:00,
2013-05-05 10:43:00,51.4,42.0,29.69,North,0,5.8,5.8,70,0.00,OVC,,0.00,200.0,WeatherDisplay:10.37,2013-05-05 15:43:00,
2013-05-05 10:48:00,52.0,41.7,29.69,NNW,338,5.8,5.8,68,0.00,OVC,,0.00,200.0,WeatherDisplay:10.37,2013-05-05 15:48:00,
2013-05-05 10:53:00,52.3,42.1,29.69,WNW,292,6.9,6.9,68,0.00,OVC,,0.00,200.0,WeatherDisplay:10.37,2013-05-05 15:53:00,
2013-05-05 10:58:00,52.5,42.6,29.69,WNW,292,6.2,6.2,69,0.00,OVC,,0.00,200.0,WeatherDisplay:10.37,2013-05-05 15:58:00,
2013-05-05 11:03:00,52.5,42.6,29.69,WNW,292,6.2,6.2,69,0.00,OVC,,0.00,200.0,WeatherDisplay:10.37,2013-05-05 16:03:00,
2013-05-05 11:08:00,52.5,42.6,29.69,WNW,292,6.2,6.2,69,0.00,OVC,,0.00,200.0,WeatherDisplay:10.37,2013-05-05 16:08:00,
2013-05-05 11:13:00,54.5,43.4,29.69,North,0,5.8,5.8,66,0.00,OVC,,0.00,200.0,WeatherDisplay:10.37,2013-05-05 16:13:00,
2013-05-05 11:18:00,54.5,43.4,29.69,WNW,292,9.2,9.2,66,0.00,OVC,,0.00,200.0,WeatherDisplay:10.37,2013-05-05 16:18:00,
2013-05-05 11:23:00,56.1,44.1,29.69,NW,315,9.2,9.2,64,0.00,OVC,,0.00,200.0,WeatherDisplay:10.37,2013-05-05 16:23:00,
2013-05-05 11:28:00,54.5,42.6,29.69,WNW,292,6.2,6.2,64,0.00,OVC,,0.00,200.0,WeatherDisplay:10.37,2013-05-05 16:28:00,
2013-05-05 11:33:00,53.4,43.1,29.69,NNW,338,8.1,8.1,68,0.00,OVC,,0.00,200.0,WeatherDisplay:10.37,2013-05-05 16:33:00,
2013-05-05 11:38:00,53.1,42.4,29.69,NNW,338,9.2,9.2,67,0.00,OVC,,0.00,300.0,WeatherDisplay:10.37,2013-05-05 16:38:00,
2013-05-05 11:43:00,56.3,45.5,29.69,WNW,292,7.8,7.8,67,0.00,OVC,,0.00,400.0,WeatherDisplay:10.37,2013-05-05 16:43:00,
2013-05-05 11:48:00,55.8,44.2,29.69,WNW,292,6.9,6.9,65,0.00,OVC,,0.00,400.0,WeatherDisplay:10.37,2013-05-05 16:48:00,
2013-05-05 11:53:00,56.5,45.3,29.69,WNW,292,8.1,8.1,66,0.00,OVC,,0.00,700.0,WeatherDisplay:10.37,2013-05-05 16:53:00,
2013-05-05 11:58:00,55.6,43.2,29.69,NW,315,8.1,8.1,63,0.00,OVC,,0.00,800.0,WeatherDisplay:10.37,2013-05-05 16:58:00,
2013-05-05 12:03:00,56.7,45.0,29.69,WNW,292,8.1,8.1,65,0.00,OVC,,0.00,300.0,WeatherDisplay:10.37,2013-05-05 17:03:00,
2013-05-05 12:08:00,56.1,43.7,29.69,NW,315,9.2,9.2,63,0.00,OVC,,0.00,800.0,WeatherDisplay:10.37,2013-05-05 17:08:00,
2013-05-05 12:13:00,57.6,44.6,29.69,WNW,292,8.1,8.1,62,0.00,OVC,,0.00,1000.0,WeatherDisplay:10.37,2013-05-05 17:13:00,
2013-05-05 12:18:00,56.1,43.7,29.69,WNW,292,8.1,8.1,63,0.00,BKN,OVC,0.00,200.0,WeatherDisplay:10.37,2013-05-05 17:18:00,
2013-05-05 12:23:00,56.5,44.4,29.69,WNW,292,6.9,6.9,64,0.00,SCT,OVC,0.00,900.0,WeatherDisplay:10.37,2013-05-05 17:23:00,
2013-05-05 12:28:00,56.3,43.9,29.69,WNW,292,8.1,8.1,63,0.00,CLR,OVC,0.00,500.0,WeatherDisplay:10.37,2013-05-05 17:28:00,
2013-05-05 12:33:00,57.9,44.5,29.69,WNW,292,10.4,10.4,61,0.00,CLR,OVC,0.00,700.0,WeatherDisplay:10.37,2013-05-05 17:33:00,
2013-05-05 12:38:00,58.1,44.7,29.69,NW,315,6.0,6.0,61,0.00,CLR,OVC,0.00,600.0,WeatherDisplay:10.37,2013-05-05 17:38:00,
2013-05-05 12:43:00,56.5,43.6,29.69,NW,315,8.1,8.1,62,0.00,CLR,OVC,0.00,200.0,WeatherDisplay:10.37,2013-05-05 17:43:00,
2013-05-05 12:48:00,56.1,43.7,29.69,NNW,338,8.1,8.1,63,0.00,CLR,OVC,0.00,300.0,WeatherDisplay:10.37,2013-05-05 17:48:00,
2013-05-05 12:53:00,56.3,43.9,29.66,NW,315,10.4,10.4,63,0.00,CLR,OVC,0.00,200.0,WeatherDisplay:10.37,2013-05-05 17:53:00,
2013-05-05 12:59:00,55.9,43.5,29.66,NW,315,10.4,10.4,63,0.00,CLR,OVC,0.00,300.0,WeatherDisplay:10.37,2013-05-05 17:59:00,
2013-05-05 13:04:00,56.8,45.2,29.66,WNW,292,12.5,12.5,65,0.00,CLR,OVC,0.00,600.0,WeatherDisplay:10.37,2013-05-05 18:04:00,
2013-05-05 13:09:00,57.7,45.2,29.66,WNW,292,8.5,8.5,63,0.00,CLR,OVC,0.00,200.0,WeatherDisplay:10.37,2013-05-05 18:09:00,
2013-05-05 13:14:00,56.3,44.7,29.66,WNW,292,10.4,10.4,65,0.00,CLR,OVC,0.00,300.0,WeatherDisplay:10.37,2013-05-05 18:14:00,
2013-05-05 13:19:00,56.5,44.9,29.66,WNW,292,12.7,12.7,65,0.00,CLR,OVC,0.00,400.0,WeatherDisplay:10.37,2013-05-05 18:19:00,
2013-05-05 13:24:00,56.7,44.6,29.66,NW,315,9.2,9.2,64,0.00,CLR,OVC,0.00,300.0,WeatherDisplay:10.37,2013-05-05 18:24:00,
2013-05-05 13:29:00,58.8,46.2,29.66,NW,315,5.8,5.8,63,0.00,CLR,OVC,0.00,500.0,WeatherDisplay:10.37,2013-05-05 18:29:00,
2013-05-05 13:34:00,56.8,44.0,29.66,WNW,292,11.5,11.5,62,0.00,CLR,OVC,0.00,200.0,WeatherDisplay:10.37,2013-05-05 18:34:00,
2013-05-05 13:39:00,57.6,45.1,29.66,NNW,338,5.8,5.8,63,0.00,CLR,OVC,0.00,400.0,WeatherDisplay:10.37,2013-05-05 18:39:00,
2013-05-05 13:44:00,59.4,46.3,29.66,WNW,292,9.2,9.2,62,0.00,CLR,OVC,0.00,500.0,WeatherDisplay:10.37,2013-05-05 18:44:00,
2013-05-05 13:49:00,57.6,44.2,29.66,WNW,292,8.1,8.1,61,0.00,CLR,OVC,0.00,400.0,WeatherDisplay:10.37,2013-05-05 18:49:00,
2013-05-05 13:54:00,58.5,45.5,29.63,NW,315,4.6,4.6,62,0.00,CLR,OVC,0.00,300.0,WeatherDisplay:10.37,2013-05-05 18:54:00,
2013-05-05 13:59:00,63.1,49.0,29.63,WNW,292,5.9,5.9,60,0.00,CLR,OVC,0.00,300.0,WeatherDisplay:10.37,2013-05-05 18:59:00,
2013-05-05 14:04:00,58.8,44.5,29.63,NW,315,9.2,9.2,59,0.00,CLR,OVC,0.00,100.0,WeatherDisplay:10.37,2013-05-05 19:04:00,
2013-05-05 14:09:00,57.4,43.2,29.66,WNW,292,9.7,9.7,59,0.00,SCT,OVC,0.00,300.0,WeatherDisplay:10.37,2013-05-05 19:09:00,
2013-05-05 14:14:00,59.9,46.0,29.66,WNW,292,5.8,5.8,60,0.00,FEW,OVC,0.00,700.0,WeatherDisplay:10.37,2013-05-05 19:14:00,
2013-05-05 14:19:00,59.4,45.5,29.66,WNW,292,8.1,8.1,60,0.00,CLR,OVC,0.00,100.0,WeatherDisplay:10.37,2013-05-05 19:19:00,
2013-05-05 14:24:00,57.6,44.6,29.63,WNW,292,10.4,10.4,62,0.00,SCT,OVC,0.00,200.0,WeatherDisplay:10.37,2013-05-05 19:24:00,
2013-05-05 14:29:00,57.4,44.9,29.63,NW,315,9.2,9.2,63,0.00,SCT,OVC,0.00,600.0,WeatherDisplay:10.37,2013-05-05 19:29:00,
2013-05-05 14:34:00,60.6,47.5,29.63,WNW,292,10.4,10.4,62,0.00,CLR,OVC,0.00,300.0,WeatherDisplay:10.37,2013-05-05 19:34:00,
2013-05-05 14:39:00,58.6,44.8,29.66,WNW,292,10.4,10.4,60,0.00,FEW,OVC,0.00,200.0,WeatherDisplay:10.37,2013-05-05 19:39:00,
2013-05-05 14:44:00,57.4,44.0,29.66,NW,315,9.2,9.2,61,0.00,BKN,OVC,0.00,100.0,WeatherDisplay:10.37,2013-05-05 19:44:00,
2013-05-05 14:49:00,57.6,45.1,29.66,NNW,338,6.9,6.9,63,0.00,BKN,OVC,0.00,100.0,WeatherDisplay:10.37,2013-05-05 19:49:00,
2013-05-05 14:54:00,57.9,45.0,29.63,WNW,292,8.1,8.1,62,0.00,BKN,OVC,0.00,300.0,WeatherDisplay:10.37,2013-05-05 19:54:00,
2013-05-05 14:59:00,57.2,45.1,29.63,WNW,292,10.5,10.5,64,0.00,BKN,OVC,0.00,100.0,WeatherDisplay:10.37,2013-05-05 19:59:00,
2013-05-05 15:04:00,56.5,44.9,29.63,WNW,292,11.5,11.5,65,0.00,BKN,OVC,0.00,100.0,WeatherDisplay:10.37,2013-05-05 20:04:00,
2013-05-05 15:09:00,56.3,45.9,29.63,WNW,292,9.2,9.2,68,0.00,BKN,OVC,0.00,100.0,WeatherDisplay:10.37,2013-05-05 20:09:00,
2013-05-05 15:14:00,55.4,44.6,29.63,WNW,292,12.7,12.7,67,0.00,BKN,OVC,0.00,100.0,WeatherDisplay:10.37,2013-05-05 20:14:00,
2013-05-05 15:19:00,55.0,45.4,29.63,WNW,292,10.5,10.5,70,0.00,BKN,OVC,0.00,100.0,WeatherDisplay:10.37,2013-05-05 20:19:00,
2013-05-05 15:24:00,55.0,45.4,29.66,North,0,10.4,10.4,70,0.00,BKN,OVC,0.00,100.0,WeatherDisplay:10.37,2013-05-05 20:24:00,
2013-05-05 15:29:00,54.9,45.6,29.66,WNW,292,10.4,10.4,71,0.00,BKN,OVC,0.00,100.0,WeatherDisplay:10.37,2013-05-05 20:29:00,
2013-05-05 15:34:00,55.6,46.7,29.66,WNW,292,7.6,7.6,72,0.00,BKN,OVC,0.00,200.0,WeatherDisplay:10.37,2013-05-05 20:34:00,
2013-05-05 15:39:00,57.0,47.3,29.63,NNW,338,10.4,10.4,70,0.00,BKN,OVC,0.00,300.0,WeatherDisplay:10.37,2013-05-05 20:39:00,
2013-05-05 15:44:00,57.0,46.9,29.63,NW,315,11.5,11.5,69,0.00,BKN,OVC,0.00,100.0,WeatherDisplay:10.37,2013-05-05 20:44:00,
2013-05-05 15:49:00,57.0,46.2,29.63,NNW,338,12.7,12.7,67,0.00,BKN,OVC,0.00,300.0,WeatherDisplay:10.37,2013-05-05 20:49:00,
2013-05-05 15:54:00,57.2,45.9,29.63,WNW,292,12.7,12.7,66,0.00,BKN,OVC,0.00,200.0,WeatherDisplay:10.37,2013-05-05 20:54:00,
2013-05-05 15:59:00,56.1,45.7,29.63,WNW,292,15.0,15.0,68,0.00,BKN,OVC,0.00,100.0,WeatherDisplay:10.37,2013-05-05 20:59:00,
2013-05-05 16:04:00,56.7,46.2,29.63,WNW,292,10.4,10.4,68,0.00,BKN,OVC,0.00,300.0,WeatherDisplay:10.37,2013-05-05 21:04:00,
2013-05-05 16:09:00,57.6,46.7,29.63,NNW,338,10.4,10.4,67,0.00,BKN,OVC,0.00,500.0,WeatherDisplay:10.37,2013-05-05 21:09:00,
2013-05-05 16:14:00,57.7,46.0,29.63,NW,315,12.7,12.7,65,0.00,BKN,OVC,0.00,200.0,WeatherDisplay:10.37,2013-05-05 21:14:00,
2013-05-05 16:19:00,59.4,48.0,29.63,WNW,292,10.7,10.7,66,0.00,BKN,OVC,0.00,500.0,WeatherDisplay:10.37,2013-05-05 21:19:00,
2013-05-05 16:24:00,57.7,46.5,29.63,WNW,292,11.5,11.5,66,0.00,BKN,OVC,0.00,100.0,WeatherDisplay:10.37,2013-05-05 21:24:00,
2013-05-05 16:29:00,56.7,46.2,29.63,WNW,292,12.7,12.7,68,0.00,BKN,OVC,0.00,100.0,WeatherDisplay:10.37,2013-05-05 21:29:00,
2013-05-05 16:34:00,56.3,47.0,29.63,WNW,292,8.1,8.1,71,0.00,BKN,OVC,0.00,0.0,WeatherDisplay:10.37,2013-05-05 21:34:00,
2013-05-05 16:39:00,55.8,46.1,29.63,WNW,292,11.5,11.5,70,0.00,BKN,OVC,0.00,100.0,WeatherDisplay:10.37,2013-05-05 21:39:00,
2013-05-05 16:44:00,56.5,47.2,29.63,NW,315,9.7,9.7,71,0.00,BKN,OVC,0.00,100.0,WeatherDisplay:10.37,2013-05-05 21:44:00,
2013-05-05 16:49:00,56.8,47.5,29.63,WNW,292,10.4,10.4,71,0.00,BKN,OVC,0.00,200.0,WeatherDisplay:10.37,2013-05-05 21:49:00,
2013-05-05 16:54:00,57.2,47.1,29.63,WNW,292,10.4,10.4,69,0.00,BKN,OVC,0.00,100.0,WeatherDisplay:10.37,2013-05-05 21:54:00,
2013-05-05 16:59:00,57.2,47.1,29.63,NNW,338,8.1,8.1,69,0.00,BKN,OVC,0.00,100.0,WeatherDisplay:10.37,2013-05-05 21:59:00,
2013-05-05 17:04:00,57.9,47.8,29.63,NNW,338,6.9,6.9,69,0.00,BKN,OVC,0.00,100.0,WeatherDisplay:10.37,2013-05-05 22:04:00,
2013-05-05 17:09:00,59.2,47.8,29.63,WNW,292,9.2,9.2,66,0.00,BKN,OVC,0.00,200.0,WeatherDisplay:10.37,2013-05-05 22:09:00,
2013-05-05 17:14:00,58.1,46.4,29.63,WNW,292,12.7,12.7,65,0.00,BKN,OVC,0.00,100.0,WeatherDisplay:10.37,2013-05-05 22:14:00,
2013-05-05 17:19:00,57.7,46.9,29.63,NNW,338,9.2,9.2,67,0.00,BKN,OVC,0.00,100.0,WeatherDisplay:10.37,2013-05-05 22:19:00,
2013-05-05 17:24:00,57.2,46.3,29.63,WNW,292,10.9,10.9,67,0.00,BKN,OVC,0.00,100.0,WeatherDisplay:10.37,2013-05-05 22:24:00,
2013-05-05 17:29:00,57.2,46.7,29.63,WNW,292,9.2,9.2,68,0.00,BKN,OVC,0.00,100.0,WeatherDisplay:10.37,2013-05-05 22:29:00,
2013-05-05 17:34:00,57.4,46.9,29.63,WNW,292,5.8,5.8,68,0.00,BKN,OVC,0.00,0.0,WeatherDisplay:10.37,2013-05-05 22:34:00,
2013-05-05 17:39:00,57.0,46.9,29.60,NNW,338,8.1,8.1,69,0.00,OVC,,0.00,0.0,WeatherDisplay:10.37,2013-05-05 22:39:00,
2013-05-05 17:44:00,56.8,47.2,29.60,NNW,338,6.9,6.9,70,0.00,OVC,,0.00,0.0,WeatherDisplay:10.37,2013-05-05 22:44:00,
2013-05-05 17:50:00,56.7,47.0,29.60,NW,315,5.9,5.9,70,0.00,OVC,,0.00,0.0,WeatherDisplay:10.37,2013-05-05 22:50:00,
2013-05-05 17:55:00,56.5,47.6,29.63,WNW,292,6.9,6.9,72,0.00,OVC,,0.00,0.0,WeatherDisplay:10.37,2013-05-05 22:55:00,
2013-05-05 18:00:00,56.1,47.2,29.63,WNW,292,12.7,12.7,72,0.00,OVC,,0.00,0.0,WeatherDisplay:10.37,2013-05-05 23:00:00,
2013-05-05 18:05:00,55.8,47.2,29.63,WNW,292,8.1,8.1,73,0.00,OVC,,0.00,0.0,WeatherDisplay:10.37,2013-05-05 23:05:00,
2013-05-05 18:10:00,55.6,47.4,29.63,NW,315,8.1,8.1,74,0.00,OVC,,0.00,0.0,WeatherDisplay:10.37,2013-05-05 23:10:00,
2013-05-05 18:15:00,55.8,48.0,29.63,WNW,292,11.5,11.5,75,0.00,OVC,,0.00,0.0,WeatherDisplay:10.37,2013-05-05 23:15:00,
2013-05-05 18:20:00,55.8,48.0,29.63,NNW,338,4.6,4.7,75,0.00,OVC,,0.00,0.0,WeatherDisplay:10.37,2013-05-05 23:20:00,
2013-05-05 18:25:00,56.3,49.2,29.60,NW,315,6.9,6.9,77,0.00,OVC,,0.00,0.0,WeatherDisplay:10.37,2013-05-05 23:25:00,
2013-05-05 18:30:00,56.1,47.9,29.60,WNW,301,8.0,12.0,74,0.00,OVC,OVC,0.00,0.0,WeatherDisplay:10.37,2013-05-05 23:30:00,
2013-05-05 18:35:00,55.9,47.8,29.60,NW,307,8.0,10.0,74,0.00,OVC,OVC,0.00,0.0,WeatherDisplay:10.37,2013-05-05 23:35:00,
2013-05-05 18:40:00,55.9,48.1,29.60,WNW,292,9.2,9.2,75,0.00,OVC,,0.00,0.0,WeatherDisplay:10.37,2013-05-05 23:40:00,
2013-05-05 18:45:00,55.2,47.4,29.60,WNW,292,9.2,9.2,75,0.00,OVC,,0.00,0.0,WeatherDisplay:10.37,2013-05-05 23:45:00,
2013-05-05 18:50:00,55.2,47.8,29.60,NW,315,9.2,9.2,76,0.00,OVC,,0.00,0.0,WeatherDisplay:10.37,2013-05-05 23:50:00,
2013-05-05 18:55:00,55.2,48.1,29.63,West,270,11.5,11.5,77,0.00,OVC,,0.00,0.0,WeatherDisplay:10.37,2013-05-05 23:55:00,
2013-05-05 19:00:00,55.0,48.3,29.63,WNW,292,8.1,8.1,78,0.00,OVC,,0.00,0.0,WeatherDisplay:10.37,2013-05-06 00:00:00,
2013-05-05 19:05:00,54.9,47.8,29.63,WNW,292,9.2,9.2,77,0.00,OVC,,0.00,0.0,WeatherDisplay:10.37,2013-05-06 00:05:00,
2013-05-05 19:10:00,54.5,48.1,29.60,WNW,292,8.1,8.1,79,0.00,OVC,,0.00,0.0,WeatherDisplay:10.37,2013-05-06 00:10:00,
2013-05-05 19:15:00,54.5,48.1,29.60,NW,315,5.9,5.9,79,0.00,OVC,,0.00,0.0,WeatherDisplay:10.37,2013-05-06 00:15:00,
2013-05-05 19:20:00,54.1,48.1,29.60,West,270,9.8,9.8,80,0.00,OVC,,0.00,0.0,WeatherDisplay:10.37,2013-05-06 00:20:00,
2013-05-05 19:25:00,53.8,48.1,29.63,WNW,292,8.1,8.1,81,0.00,OVC,,0.00,0.0,WeatherDisplay:10.37,2013-05-06 00:25:00,
2013-05-05 19:30:00,53.6,48.2,29.63,West,270,6.9,6.9,82,0.00,OVC,,0.00,0.0,WeatherDisplay:10.37,2013-05-06 00:30:00,
2013-05-05 19:35:00,53.6,48.2,29.63,WNW,292,6.9,6.9,82,0.00,OVC,,0.00,0.0,WeatherDisplay:10.37,2013-05-06 00:35:00,
2013-05-05 19:40:00,54.1,48.4,29.66,NW,315,9.2,9.2,81,0.00,OVC,,0.00,0.0,WeatherDisplay:10.37,2013-05-06 00:40:00,
2013-05-05 19:45:00,54.1,48.4,29.66,WNW,292,6.9,6.9,81,0.00,OVC,,0.00,0.0,WeatherDisplay:10.37,2013-05-06 00:45:00,
2013-05-05 19:50:00,53.6,47.9,29.66,WNW,292,8.1,8.1,81,0.00,OVC,,0.00,0.0,WeatherDisplay:10.37,2013-05-06 00:50:00,
2013-05-05 19:55:00,53.1,47.4,29.63,WNW,292,8.5,8.5,81,0.00,OVC,,0.00,0.0,WeatherDisplay:10.37,2013-05-06 00:55:00,
2013-05-05 20:00:00,52.3,47.3,29.63,WNW,292,8.1,8.1,83,0.00,OVC,,0.00,0.0,WeatherDisplay:10.37,2013-05-06 01:00:00,
2013-05-05 20:05:00,52.2,47.2,29.63,West,270,10.4,10.4,83,0.00,OVC,,0.00,0.0,WeatherDisplay:10.37,2013-05-06 01:05:00,